Terminal Aerodrome Forecast
Issued by NWS

Home | Current Version | Previous Version | Graphics & Text | Print | Product List | Glossary On
Versions: 1 2 3 4 5 6 7 8 9 10 11 12 13 14 15 16 17 18 19 20 21 22 23 24 25 26
000
FTUS43 KABR 021237 AAC
TAFMBG
TAF AMD
KMBG 021237Z 0213/0312 13006KT P6SM SCT025 BKN080
     FM021700 18011KT P6SM SCT040 BKN090
     FM030100 35007KT P6SM BKN250=

USA.gov is the U.S. government's official web portal to all federal, state and local government web resources and services.